createdAt,value
2024-05-09T00:00:40.870Z,5.43
2024-05-09T00:03:10.597Z,4.80
2024-05-09T00:05:41.137Z,4.75
2024-05-09T00:08:10.041Z,4.50
2024-05-09T00:10:39.388Z,5.47
2024-05-09T00:13:08.435Z,5.18
2024-05-09T00:15:36.865Z,5.20
2024-05-09T00:18:05.683Z,5.47
2024-05-09T00:20:38.755Z,5.03
2024-05-09T00:23:12.739Z,4.90
2024-05-09T00:25:43.247Z,5.18
2024-05-09T00:28:11.882Z,6.07
2024-05-09T00:30:39.049Z,4.65
2024-05-09T00:33:07.616Z,5.03
2024-05-09T00:35:36.301Z,5.28
2024-05-09T00:38:04.498Z,5.35
2024-05-09T00:40:40.035Z,4.90
2024-05-09T00:43:10.590Z,5.63
2024-05-09T00:45:38.054Z,5.82
2024-05-09T00:48:08.372Z,5.28
2024-05-09T00:50:40.500Z,5.75
2024-05-09T00:53:10.440Z,6.20
2024-05-09T00:55:39.108Z,5.90
2024-05-09T00:58:09.553Z,4.97
2024-05-09T01:00:39.999Z,5.35
2024-05-09T01:05:40.255Z,5.57
2024-05-09T01:08:09.024Z,5.95
2024-05-09T01:10:37.418Z,5.55
2024-05-09T01:13:05.553Z,5.90
2024-05-09T01:15:33.802Z,6.95
2024-05-09T01:18:04.327Z,6.00
2024-05-09T01:20:40.823Z,6.28
2024-05-09T01:23:11.876Z,6.07
2024-05-09T01:25:39.748Z,5.28
2024-05-09T01:28:07.334Z,6.00
2024-05-09T01:30:36.991Z,5.82
2024-05-09T01:33:08.130Z,6.30
2024-05-09T01:35:37.461Z,6.28
2024-05-09T01:38:05.403Z,5.50
2024-05-09T01:40:37.607Z,5.97
2024-05-09T01:43:08.432Z,6.28
2024-05-09T01:45:36.694Z,6.32
2024-05-09T01:48:04.366Z,5.38
2024-05-09T01:53:01.993Z,6.07
2024-05-09T01:55:29.301Z,5.95
2024-05-09T01:57:56.673Z,6.47
2024-05-09T02:00:36.425Z,6.45
2024-05-09T02:03:14.407Z,7.30
2024-05-09T02:05:48.123Z,5.97
2024-05-09T02:10:48.325Z,6.00
2024-05-09T02:13:16.567Z,5.95
2024-05-09T02:15:44.268Z,6.45
2024-05-09T02:18:14.308Z,6.05
2024-05-09T02:20:42.800Z,6.75
2024-05-09T02:23:10.772Z,7.00
2024-05-09T02:25:37.991Z,7.30
2024-05-09T02:28:05.464Z,6.70
2024-05-09T02:30:40.135Z,7.38
2024-05-09T02:33:12.187Z,7.07
2024-05-09T02:35:41.796Z,7.03
2024-05-09T02:38:13.091Z,7.35
2024-05-09T02:40:40.991Z,7.03
2024-05-09T02:43:10.397Z,6.85
2024-05-09T02:45:41.582Z,6.63
2024-05-09T02:48:13.509Z,7.10
2024-05-09T02:50:41.602Z,7.20
2024-05-09T02:53:09.890Z,7.07
2024-05-09T02:55:41.911Z,7.25
2024-05-09T02:58:09.766Z,6.70
2024-05-09T03:00:40.599Z,8.07
2024-05-09T03:03:13.128Z,7.28
2024-05-09T03:05:43.140Z,6.95
2024-05-09T03:08:10.597Z,6.80
2024-05-09T03:10:39.232Z,6.95
2024-05-09T03:13:13.233Z,7.53
2024-05-09T03:15:42.013Z,7.40
2024-05-09T03:18:09.595Z,7.00
2024-05-09T03:20:38.210Z,7.65
2024-05-09T03:23:08.465Z,7.97
2024-05-09T03:25:36.521Z,7.45
2024-05-09T03:28:03.873Z,7.47
2024-05-09T03:30:39.742Z,7.55
2024-05-09T03:33:20.533Z,7.75
2024-05-09T03:35:49.405Z,7.22
2024-05-09T03:38:17.217Z,6.55
2024-05-09T03:40:49.529Z,6.68
2024-05-09T03:43:17.784Z,6.07
2024-05-09T03:45:45.972Z,6.88
2024-05-09T03:48:13.714Z,7.18
2024-05-09T03:50:41.760Z,7.07
2024-05-09T03:53:14.100Z,6.78
2024-05-09T03:55:41.515Z,6.93
2024-05-09T03:58:08.889Z,6.88
2024-05-09T04:00:39.301Z,6.05
2024-05-09T04:03:10.758Z,6.85
2024-05-09T04:05:41.748Z,6.20
2024-05-09T04:08:10.702Z,6.15
2024-05-09T04:10:38.248Z,6.72
2024-05-09T04:13:05.652Z,6.30
2024-05-09T04:15:33.123Z,6.07
2024-05-09T04:18:01.134Z,6.45
2024-05-09T04:20:36.861Z,7.10
2024-05-09T04:23:08.371Z,6.88
2024-05-09T04:25:36.551Z,7.35
2024-05-09T04:28:04.144Z,8.55
2024-05-09T04:30:37.867Z,6.65
2024-05-09T04:33:09.562Z,6.35
2024-05-09T04:35:39.209Z,6.82
2024-05-09T04:38:06.828Z,6.43
2024-05-09T04:40:36.595Z,5.45
2024-05-09T04:43:06.623Z,5.00
2024-05-09T04:45:34.239Z,5.43
2024-05-09T04:48:02.427Z,5.07
2024-05-09T04:50:36.575Z,5.13
2024-05-09T04:53:08.364Z,5.57
2024-05-09T04:55:37.359Z,4.88
2024-05-09T04:58:05.629Z,5.18
2024-05-09T05:00:37.127Z,5.55
2024-05-09T05:03:08.370Z,6.07
2024-05-09T05:05:43.574Z,6.40
2024-05-09T05:08:17.430Z,6.38
2024-05-09T05:10:46.040Z,6.45
2024-05-09T05:13:20.645Z,6.63
2024-05-09T05:15:57.501Z,6.03
2024-05-09T05:18:27.527Z,5.82
2024-05-09T05:20:58.749Z,5.88
2024-05-09T05:23:26.417Z,5.70
2024-05-09T05:25:54.348Z,6.25
2024-05-09T05:28:22.173Z,6.45
2024-05-09T05:30:50.186Z,6.13
2024-05-09T05:33:22.326Z,6.10
2024-05-09T05:35:50.176Z,6.45
2024-05-09T05:38:17.457Z,6.38
2024-05-09T05:40:44.772Z,6.65
2024-05-09T05:43:18.965Z,6.07
2024-05-09T05:45:46.890Z,6.30
2024-05-09T05:48:18.175Z,5.88
2024-05-09T05:50:46.250Z,6.00
2024-05-09T05:53:13.769Z,6.53
2024-05-09T05:55:41.749Z,6.65
2024-05-09T05:58:10.543Z,8.77
2024-05-09T06:00:39.891Z,7.55
2024-05-09T06:03:09.633Z,7.40
2024-05-09T06:05:40.438Z,6.85
2024-05-09T06:08:08.565Z,7.03
2024-05-09T06:10:39.413Z,6.88
2024-05-09T06:13:11.284Z,6.68
2024-05-09T06:15:39.844Z,7.53
2024-05-09T06:18:08.866Z,7.05
2024-05-09T06:20:38.173Z,6.60
2024-05-09T06:23:10.037Z,6.30
2024-05-09T06:25:38.160Z,7.30
2024-05-09T06:28:05.996Z,7.28
2024-05-09T06:33:03.776Z,6.15
2024-05-09T06:35:31.517Z,5.45
2024-05-09T06:37:58.976Z,6.10
2024-05-09T06:40:35.886Z,5.40
2024-05-09T06:43:05.989Z,5.72
2024-05-09T06:45:33.143Z,4.63
2024-05-09T06:48:00.758Z,5.30
2024-05-09T06:50:35.624Z,6.20
2024-05-09T06:53:05.642Z,4.70
2024-05-09T06:55:36.252Z,5.10
2024-05-09T06:58:06.507Z,4.80
2024-05-09T07:00:38.751Z,3.92
2024-05-09T07:03:14.986Z,4.18
2024-05-09T07:05:44.972Z,4.68
2024-05-09T07:08:12.628Z,4.15
2024-05-09T07:10:40.369Z,4.55
2024-05-09T07:13:12.036Z,4.20
2024-05-09T07:18:18.382Z,3.53
2024-05-09T07:20:47.522Z,6.93
2024-05-09T07:23:16.091Z,4.05
2024-05-09T07:25:43.832Z,3.80
2024-05-09T07:28:16.180Z,4.60
2024-05-09T07:30:43.872Z,4.25
2024-05-09T07:33:18.584Z,3.00
2024-05-09T07:35:46.486Z,3.55
2024-05-09T07:38:14.112Z,3.45
2024-05-09T07:40:42.000Z,3.42
2024-05-09T07:43:16.507Z,3.25
2024-05-09T07:45:51.949Z,19.98
2024-05-09T07:52:39.197Z,8.95
2024-05-09T07:53:47.670Z,10.43
2024-05-09T07:56:21.616Z,6.32
2024-05-09T07:58:51.536Z,4.45
2024-05-09T08:01:19.473Z,3.83
2024-05-09T08:03:47.195Z,3.40
2024-05-09T08:06:15.352Z,3.10
2024-05-09T08:08:42.785Z,2.78
2024-05-09T08:11:10.073Z,3.67
2024-05-09T08:13:37.568Z,3.25
2024-05-09T08:16:05.275Z,3.78
2024-05-09T08:18:32.777Z,3.40
2024-05-09T08:21:00.336Z,2.95
2024-05-09T08:23:28.742Z,16.45
2024-05-09T08:25:56.073Z,2.55
2024-05-09T08:28:23.268Z,2.65
2024-05-09T08:30:50.819Z,3.35
2024-05-09T08:33:18.327Z,3.10
2024-05-09T08:35:45.922Z,4.85
2024-05-09T08:38:13.194Z,6.00
2024-05-09T08:40:42.039Z,4.70
2024-05-09T08:43:12.014Z,4.13
2024-05-09T08:45:45.355Z,3.70
2024-05-09T08:48:15.746Z,2.85
2024-05-09T08:50:44.913Z,4.00
2024-05-09T08:53:14.564Z,2.53
2024-05-09T08:55:43.674Z,2.15
2024-05-09T08:58:17.266Z,2.30
2024-05-09T09:00:46.378Z,5.20
2024-05-09T09:03:19.936Z,4.32
2024-05-09T09:05:58.182Z,2.53
2024-05-09T09:08:26.652Z,4.32
2024-05-09T09:10:56.959Z,4.75
2024-05-09T09:13:24.328Z,4.68
2024-05-09T09:15:52.117Z,5.13
2024-05-09T09:18:19.711Z,3.28
2024-05-09T09:20:47.116Z,7.78
2024-05-09T09:23:14.493Z,9.10
2024-05-09T09:25:41.757Z,6.07
2024-05-09T09:28:09.683Z,6.28
2024-05-09T09:30:41.290Z,2.83
2024-05-09T09:35:37.145Z,3.78
2024-05-09T09:38:05.945Z,2.90
2024-05-09T09:40:42.888Z,3.17
2024-05-09T09:43:22.628Z,2.85
2024-05-09T09:45:51.825Z,3.22
2024-05-09T09:48:22.195Z,3.28
2024-05-09T09:50:52.260Z,2.88
2024-05-09T09:53:23.835Z,3.47
2024-05-09T09:58:19.712Z,2.60
2024-05-09T10:00:47.497Z,2.78
2024-05-09T10:03:15.010Z,3.33
2024-05-09T10:05:45.286Z,3.22
2024-05-09T10:08:16.340Z,3.40
2024-05-09T10:10:48.000Z,3.08
2024-05-09T10:13:16.294Z,3.03
2024-05-09T10:15:48.594Z,2.63
2024-05-09T10:18:16.130Z,2.72
2024-05-09T10:20:47.046Z,2.80
2024-05-09T10:23:26.347Z,3.50
2024-05-09T10:26:00.615Z,2.78
2024-05-09T10:28:28.962Z,2.25
2024-05-09T10:31:13.944Z,3.38
2024-05-09T10:33:53.010Z,3.00
2024-05-09T10:36:27.252Z,3.85
2024-05-09T10:38:55.772Z,3.65
2024-05-09T10:41:23.919Z,3.30
2024-05-09T10:43:51.559Z,3.17
2024-05-09T10:46:19.831Z,3.55
2024-05-09T10:48:48.615Z,3.40
2024-05-09T10:51:17.690Z,3.53
2024-05-09T10:53:47.106Z,4.30
2024-05-09T10:56:15.490Z,3.70
2024-05-09T10:58:42.856Z,3.20
2024-05-09T11:01:12.050Z,3.55
2024-05-09T11:03:39.935Z,3.03
2024-05-09T11:06:08.209Z,3.22
2024-05-09T11:08:36.591Z,2.92
2024-05-09T11:11:07.762Z,3.13
2024-05-09T11:13:37.310Z,3.05
2024-05-09T11:16:06.939Z,3.00
2024-05-09T11:18:38.201Z,3.13
2024-05-09T11:21:13.913Z,2.78
2024-05-09T11:23:41.672Z,2.70
2024-05-09T11:26:10.440Z,3.17
2024-05-09T11:28:37.653Z,3.90
2024-05-09T11:31:07.899Z,4.43
2024-05-09T11:33:40.030Z,3.28
2024-05-09T11:36:08.853Z,5.95
2024-05-09T11:38:36.331Z,4.40
2024-05-09T11:41:04.196Z,6.10
2024-05-09T11:43:31.703Z,3.28
2024-05-09T11:45:59.189Z,2.72
2024-05-09T11:48:26.950Z,8.40
2024-05-09T11:50:55.769Z,3.58
2024-05-09T11:53:23.253Z,3.92
2024-05-09T11:55:50.593Z,2.72
2024-05-09T11:58:19.222Z,2.47
2024-05-09T12:00:47.363Z,3.30
2024-05-09T12:03:15.098Z,2.58
2024-05-09T12:05:42.568Z,3.08
2024-05-09T12:08:10.146Z,2.50
2024-05-09T12:10:37.781Z,6.57
2024-05-09T12:13:06.897Z,3.67
2024-05-09T12:15:38.093Z,5.78
2024-05-09T12:18:06.977Z,3.42
2024-05-09T12:20:39.047Z,3.30
2024-05-09T12:23:09.897Z,4.13
2024-05-09T12:25:38.923Z,3.05
2024-05-09T12:28:07.061Z,2.25
2024-05-09T12:30:38.474Z,3.53
2024-05-09T12:33:12.746Z,3.60
2024-05-09T12:35:42.716Z,6.20
2024-05-09T12:38:11.930Z,4.40
2024-05-09T12:40:39.602Z,2.83
2024-05-09T12:43:08.494Z,3.60
2024-05-09T12:45:37.255Z,3.40
2024-05-09T12:48:07.523Z,3.13
2024-05-09T12:50:35.444Z,2.60
2024-05-09T12:53:04.226Z,2.30
2024-05-09T12:55:40.550Z,2.50
2024-05-09T12:58:19.234Z,3.17
2024-05-09T13:00:47.148Z,2.50
2024-05-09T13:03:15.141Z,2.63
2024-05-09T13:05:44.818Z,2.63
2024-05-09T13:08:13.149Z,2.70
2024-05-09T13:10:40.659Z,4.28
2024-05-09T13:13:10.406Z,2.33
2024-05-09T13:15:37.792Z,2.70
2024-05-09T13:18:06.357Z,2.33
2024-05-09T13:20:35.710Z,4.28
2024-05-09T13:23:08.423Z,3.70
2024-05-09T13:25:37.749Z,2.88
2024-05-09T13:28:06.837Z,3.83
2024-05-09T13:30:39.614Z,3.00
2024-05-09T13:33:11.253Z,3.65
2024-05-09T13:35:40.683Z,4.15
2024-05-09T13:38:08.528Z,3.03
2024-05-09T13:40:36.600Z,3.03
2024-05-09T13:43:05.350Z,7.88
2024-05-09T13:45:33.533Z,4.82
2024-05-09T13:48:02.547Z,3.10
2024-05-09T13:50:34.837Z,3.20
2024-05-09T13:53:06.284Z,3.60
2024-05-09T13:55:35.605Z,3.35
2024-05-09T13:58:03.508Z,3.45
2024-05-09T14:00:42.634Z,3.35
2024-05-09T14:03:15.918Z,3.42
2024-05-09T14:05:43.896Z,4.00
2024-05-09T14:08:12.125Z,3.47
2024-05-09T14:10:44.536Z,3.95
2024-05-09T14:13:13.135Z,3.05
2024-05-09T14:15:40.680Z,3.35
2024-05-09T14:18:12.394Z,3.53
2024-05-09T14:20:41.319Z,3.70
2024-05-09T14:23:08.548Z,3.33
2024-05-09T14:25:39.050Z,3.20
2024-05-09T14:28:09.599Z,2.95
2024-05-09T14:30:38.494Z,3.30
2024-05-09T14:33:08.003Z,3.15
2024-05-09T14:35:37.960Z,3.17
2024-05-09T14:38:07.580Z,3.00
2024-05-09T14:40:41.008Z,2.92
2024-05-09T14:43:14.989Z,2.80
2024-05-09T14:45:43.470Z,3.17
2024-05-09T14:48:12.136Z,2.38
2024-05-09T14:50:40.777Z,2.70
2024-05-09T14:53:10.750Z,2.80
2024-05-09T14:55:40.424Z,2.58
2024-05-09T14:58:13.366Z,2.67
2024-05-09T15:00:46.721Z,2.40
2024-05-09T15:03:22.165Z,2.58
2024-05-09T15:05:51.154Z,2.53
2024-05-09T15:08:19.555Z,3.13
2024-05-09T15:10:47.340Z,2.85
2024-05-09T15:13:16.759Z,2.50
2024-05-09T15:15:44.701Z,2.40
2024-05-09T15:18:12.288Z,2.40
2024-05-09T15:20:40.868Z,3.95
2024-05-09T15:23:08.379Z,4.38
2024-05-09T15:25:36.748Z,2.88
2024-05-09T15:28:07.628Z,2.67
2024-05-09T15:33:07.164Z,3.17
2024-05-09T15:35:36.243Z,2.90
2024-05-09T15:38:04.393Z,2.70
2024-05-09T15:40:38.890Z,2.47
2024-05-09T15:43:10.174Z,2.20
2024-05-09T15:45:39.824Z,2.33
2024-05-09T15:48:09.049Z,2.38
2024-05-09T15:50:40.695Z,2.47
2024-05-09T15:53:10.963Z,2.83
2024-05-09T15:55:39.125Z,2.83
2024-05-09T15:58:07.256Z,2.92
2024-05-09T16:00:39.350Z,2.42
2024-05-09T16:03:14.318Z,3.42
2024-05-09T16:05:45.704Z,3.25
2024-05-09T16:08:15.364Z,3.17
2024-05-09T16:10:45.908Z,2.95
2024-05-09T16:13:14.193Z,3.17
2024-05-09T16:15:41.698Z,3.67
2024-05-09T16:18:09.094Z,3.53
2024-05-09T16:20:40.297Z,3.00
2024-05-09T16:23:10.178Z,3.03
2024-05-09T16:25:37.992Z,3.40
2024-05-09T16:28:09.746Z,3.05
2024-05-09T16:30:41.234Z,4.30
2024-05-09T16:33:09.523Z,5.78
2024-05-09T16:35:37.514Z,4.78
2024-05-09T16:38:06.069Z,4.32
2024-05-09T16:40:38.442Z,4.40
2024-05-09T16:43:09.249Z,5.03
2024-05-09T16:45:38.145Z,4.85
2024-05-09T16:48:06.900Z,5.03
2024-05-09T16:50:35.728Z,3.53
2024-05-09T16:53:05.645Z,3.42
2024-05-09T16:55:34.031Z,3.80
2024-05-09T16:58:02.202Z,3.42
2024-05-09T17:00:39.191Z,3.65
2024-05-09T17:03:11.192Z,4.35
2024-05-09T17:05:39.580Z,3.70
2024-05-09T17:08:07.849Z,4.20
2024-05-09T17:10:36.460Z,4.30
2024-05-09T17:13:06.275Z,4.63
2024-05-09T17:15:35.662Z,4.18
2024-05-09T17:18:04.410Z,3.65
2024-05-09T17:20:35.232Z,3.83
2024-05-09T17:23:13.577Z,4.22
2024-05-09T17:25:41.916Z,4.05
2024-05-09T17:28:09.772Z,3.85
2024-05-09T17:30:39.620Z,4.38
2024-05-09T17:35:37.756Z,3.55
2024-05-09T17:38:06.703Z,4.20
2024-05-09T17:40:36.577Z,3.92
2024-05-09T17:43:07.662Z,4.63
2024-05-09T17:45:40.554Z,3.92
2024-05-09T17:48:10.257Z,3.72
2024-05-09T17:50:38.620Z,3.83
2024-05-09T17:53:07.085Z,3.40
2024-05-09T17:55:34.945Z,3.65
2024-05-09T17:58:02.650Z,4.28
2024-05-09T18:00:37.621Z,3.80
2024-05-09T18:03:10.488Z,3.75
2024-05-09T18:05:38.474Z,4.95
2024-05-09T18:08:09.170Z,4.90
2024-05-09T18:10:39.283Z,4.95
2024-05-09T18:13:11.430Z,5.93
2024-05-09T18:15:39.517Z,6.07
2024-05-09T18:18:07.752Z,5.93
2024-05-09T18:20:42.397Z,5.68
2024-05-09T18:23:15.161Z,5.65
2024-05-09T18:25:43.720Z,5.78
2024-05-09T18:28:11.100Z,5.72
2024-05-09T18:30:39.418Z,5.65
2024-05-09T18:33:08.235Z,5.53
2024-05-09T18:35:36.988Z,5.30
2024-05-09T18:38:05.496Z,5.53
2024-05-09T18:40:36.470Z,5.03
2024-05-09T18:43:07.955Z,5.70
2024-05-09T18:45:39.467Z,6.38
2024-05-09T18:48:09.151Z,6.20
2024-05-09T18:50:39.803Z,8.10
2024-05-09T18:53:12.820Z,6.82
2024-05-09T18:55:42.841Z,5.93
2024-05-09T18:58:10.170Z,5.45
2024-05-09T19:00:40.079Z,9.27
2024-05-09T19:03:12.617Z,7.32
2024-05-09T19:05:43.401Z,6.00
2024-05-09T19:08:12.023Z,4.93
2024-05-09T19:10:40.207Z,5.32
2024-05-09T19:13:12.057Z,11.15
2024-05-09T19:15:41.530Z,6.10
2024-05-09T19:18:10.301Z,5.97
2024-05-09T19:20:38.259Z,5.80
2024-05-09T19:23:06.871Z,6.05
2024-05-09T19:25:35.252Z,4.90
2024-05-09T19:28:03.703Z,6.00
2024-05-09T19:30:38.571Z,5.70
2024-05-09T19:33:10.340Z,6.00
2024-05-09T19:35:38.826Z,5.57
2024-05-09T19:38:06.221Z,6.03
2024-05-09T19:40:35.003Z,5.82
2024-05-09T19:43:04.856Z,5.88
2024-05-09T19:45:34.092Z,5.30
2024-05-09T19:48:02.707Z,7.25
2024-05-09T19:50:37.907Z,5.60
2024-05-09T19:53:11.113Z,6.20
2024-05-09T19:55:38.761Z,6.10
2024-05-09T19:58:07.728Z,6.32
2024-05-09T20:00:38.363Z,5.30
2024-05-09T20:03:08.270Z,5.53
2024-05-09T20:05:36.436Z,6.60
2024-05-09T20:08:04.551Z,5.57
2024-05-09T20:10:34.199Z,6.35
2024-05-09T20:13:03.343Z,5.80
2024-05-09T20:15:31.858Z,5.55
2024-05-09T20:17:59.314Z,6.20
2024-05-09T20:20:33.590Z,6.25
2024-05-09T20:23:06.700Z,6.22
2024-05-09T20:25:33.867Z,6.00
2024-05-09T20:28:01.644Z,5.68
2024-05-09T20:30:57.053Z,6.80
2024-05-09T20:33:24.374Z,6.20
2024-05-09T20:35:51.594Z,6.10
2024-05-09T20:38:18.779Z,6.35
2024-05-09T20:40:46.407Z,5.90
2024-05-09T20:43:13.834Z,5.97
2024-05-09T20:45:41.317Z,7.05
2024-05-09T20:48:09.772Z,6.18
2024-05-09T20:50:40.723Z,6.28
2024-05-09T20:53:12.153Z,6.53
2024-05-09T20:55:40.723Z,6.28
2024-05-09T20:58:09.282Z,7.35
2024-05-09T21:00:40.568Z,6.95
2024-05-09T21:03:11.976Z,6.60
2024-05-09T21:05:40.088Z,6.53
2024-05-09T21:08:07.954Z,6.68
2024-05-09T21:10:36.885Z,6.05
2024-05-09T21:13:05.683Z,5.93
2024-05-09T21:15:33.866Z,6.13
2024-05-09T21:18:01.200Z,7.22
2024-05-09T21:20:31.557Z,6.88
2024-05-09T21:23:00.644Z,6.88
2024-05-09T21:25:27.944Z,6.05
2024-05-09T21:27:55.514Z,6.93
2024-05-09T21:30:32.425Z,6.95
2024-05-09T21:33:13.287Z,7.45
2024-05-09T21:35:42.742Z,6.35
2024-05-09T21:38:10.279Z,6.85
2024-05-09T21:40:38.532Z,6.85
2024-05-09T21:43:07.831Z,6.68
2024-05-09T21:45:36.698Z,6.78
2024-05-09T21:48:04.868Z,6.75
2024-05-09T21:50:39.179Z,6.70
2024-05-09T21:53:08.992Z,6.40
2024-05-09T21:55:36.233Z,7.20
2024-05-09T21:58:03.812Z,7.05
2024-05-09T22:00:36.809Z,7.00
2024-05-09T22:03:08.439Z,7.55
2024-05-09T22:05:36.671Z,7.43
2024-05-09T22:08:04.312Z,7.15
2024-05-09T22:10:34.976Z,7.07
2024-05-09T22:13:08.228Z,7.45
2024-05-09T22:15:37.655Z,7.63
2024-05-09T22:18:06.599Z,7.05
2024-05-09T22:20:37.856Z,7.40
2024-05-09T22:23:07.780Z,7.63
2024-05-09T22:25:35.628Z,6.90
2024-05-09T22:28:03.551Z,7.15
2024-05-09T22:30:36.870Z,7.15
2024-05-09T22:33:11.581Z,7.53
2024-05-09T22:35:40.723Z,7.70
2024-05-09T22:38:08.364Z,8.05
2024-05-09T22:40:46.579Z,7.90
2024-05-09T22:43:24.619Z,8.63
2024-05-09T22:45:55.009Z,9.73
2024-05-09T22:48:24.060Z,8.85
2024-05-09T22:50:52.254Z,11.00
2024-05-09T22:53:19.539Z,8.02
2024-05-09T22:55:46.703Z,8.45
2024-05-09T22:58:13.898Z,8.05
2024-05-09T23:00:41.216Z,8.13
2024-05-09T23:03:08.690Z,8.20
2024-05-09T23:05:36.119Z,9.40
2024-05-09T23:08:03.429Z,8.20
2024-05-09T23:10:36.189Z,8.77
2024-05-09T23:13:06.793Z,8.07
2024-05-09T23:15:34.785Z,9.02
2024-05-09T23:18:02.270Z,8.68
2024-05-09T23:20:36.674Z,8.95
2024-05-09T23:23:07.903Z,8.15
2024-05-09T23:25:35.528Z,7.85
2024-05-09T23:28:03.229Z,7.97
2024-05-09T23:30:37.539Z,8.38
2024-05-09T23:33:13.401Z,8.90
2024-05-09T23:35:42.461Z,8.88
2024-05-09T23:38:09.995Z,8.60
2024-05-09T23:40:40.176Z,8.57
2024-05-09T23:45:37.263Z,9.32
2024-05-09T23:48:05.272Z,8.52
2024-05-09T23:50:36.195Z,7.90
2024-05-09T23:53:07.956Z,9.50
2024-05-09T23:55:36.601Z,9.68
2024-05-09T23:58:04.052Z,8.43
